Latest Coastal Weather Observations for Aireys Inlet

IDV60701

Issued at 7:11 am EDT Sunday 21 December 2014 (issued every 10 minutes, with the page automatically refreshed every 10 minutes)

About coastal observations | Map of coastal stations | Coastal observations for VIC | Marine services | Other Formats
Station Details ID: 090180 Name: AIREYS INLET Lat: -38.46 Lon: 144.09 Height: 95.0 m
Data from the previous 72 hours. | See also: Recent months at Aireys Inlet
Date/Time
EDT
Temp

°C
Wind Pressure Rain
since 9am
mm
Weather Cloud Vis
km
Sea
Height
m
Swell
Dir
 
Speed
knots
Gust
knots
hPa Trend Height
m
Period
s
Dir
21/07:00am 14.0 NNE 5 8 - - 0.0 - - - - - - -
21/06:30am 13.7 NNE 2 5 - - 0.0 - - - - - - -
21/06:00am 13.1 N 3 6 - - 0.0 - - - - - - -
21/05:30am 12.6 N 4 5 - - 0.0 - - - - - - -
21/05:00am 11.7 NNW 5 7 - - 0.0 - - - - - - -
21/04:30am 11.5 N 5 6 - - 0.0 - - - - - - -
21/04:00am 11.3 N 5 7 - - 0.0 - - - - - - -
21/03:30am 11.6 N 5 6 - - 0.0 - - - - - - -
21/03:00am 12.1 N 4 5 - - 0.0 - - - - - - -
21/02:30am 11.5 NNW 4 5 - - 0.0 - - - - - - -
21/02:00am 11.7 NNW 4 6 - - 0.0 - - - - - - -
21/01:30am 11.8 NNW 4 5 - - 0.0 - - - - - - -
21/01:00am 12.2 NNW 3 5 - - 0.0 - - - - - - -
21/12:30am 12.2 NNW 5 6 - - 0.0 - - - - - - -
21/12:00am 12.5 NNW 4 5 - - 0.0 - - - - - - -
 
Date/Time
EDT
Temp

°C
Wind Pressure Rain
since 9am
mm
Weather Cloud Vis
km
Sea
Height
m
Swell
Dir
 
Speed
knots
Gust
knots
hPa Trend Height
m
Period
s
Dir
20/11:30pm 13.0 NNW 2 3 - - 0.0 - - - - - - -
20/11:00pm 14.0 SSE 2 3 - - 0.0 - - - - - - -
20/10:30pm 14.3 S 3 4 - - 0.0 - - - - - - -
20/10:00pm 14.5 S 5 7 - - 0.0 - - - - - - -
20/09:30pm 14.7 SSW 4 6 - - 0.0 - - - - - - -
20/09:00pm 15.0 SSW 6 8 - - 0.0 - - - - - - -
20/08:30pm 15.7 S 7 10 - - 0.0 - - - - - - -
20/08:00pm 17.1 S 7 11 - - 0.0 - - - - - - -
20/07:30pm 17.8 S 9 12 - - 0.0 - - - - - - -
20/07:00pm 18.6 S 9 14 - - 0.0 - - - - - - -
20/06:30pm 18.6 SSW 11 16 - - 0.0 - - - - - - -
20/06:00pm 18.9 SSW 11 16 - - 0.0 - - - - - - -
20/05:30pm 19.9 SSW 11 16 - - 0.0 - - - - - - -
20/05:00pm 20.4 SSW 10 15 - - 0.0 - - - - - - -
20/04:30pm 20.1 SSW 12 19 - - 0.0 - - - - - - -
20/04:00pm 19.5 SSW 11 17 - - 0.0 - - - - - - -
20/03:30pm 20.9 SSW 11 16 - - 0.0 - - - - - - -
20/03:00pm 20.5 SSW 9 14 - - 0.0 - - - - - - -
20/02:30pm 21.5 SSW 10 15 - - 0.0 - - - - - - -
20/02:00pm 20.8 S 10 15 - - 0.0 - - - - - - -
20/01:30pm 21.2 SSW 9 13 - - 0.0 - - - - - - -
20/01:00pm 19.9 S 7 11 - - 0.0 - - - - - - -
20/12:30pm 19.5 S 8 12 - - 0.0 - - - - - - -
20/12:00pm 19.2 SSE 7 11 - - 0.0 - - - - - - -
20/11:30am 18.6 SSE 6 10 - - 0.0 - - - - - - -
20/11:00am 18.4 SE 4 7 - - 0.0 - - - - - - -
20/10:30am 17.7 SW 3 7 - - 0.0 - - - - - - -
20/10:00am 17.0 WSW 4 10 - - 0.0 - - - - - - -
20/09:30am 16.6 NNW 5 10 - - 0.0 - - - - - - -
20/09:00am 15.8 NW 5 10 - - 0.0 - - - - - - -
20/08:30am 14.0 NW 7 9 - - 0.0 - - - - - - -
20/08:00am 12.7 NW 7 10 - - 0.0 - - - - - - -
20/07:30am 12.2 NW 6 9 - - 0.0 - - - - - - -
20/07:00am 11.5 NW 7 10 - - 0.0 - - - - - - -
20/06:30am 10.3 NW 7 8 - - 0.0 - - - - - - -
20/06:00am 11.0 NW 6 8 - - 0.0 - - - - - - -
20/05:30am 10.2 NNW 5 6 - - 0.0 - - - - - - -
20/05:00am 11.6 NW 7 9 - - 0.0 - - - - - - -
20/04:30am 10.6 NW 5 5 - - 0.0 - - - - - - -
20/04:00am 11.7 W 4 6 - - 0.0 - - - - - - -
20/03:30am 11.8 WNW 8 10 - - 0.0 - - - - - - -
20/03:00am 10.9 WNW 6 8 - - 0.0 - - - - - - -
20/02:30am 12.0 WNW 7 10 - - 0.0 - - - - - - -
20/02:00am 11.7 WNW 7 10 - - 0.0 - - - - - - -
20/01:30am 11.8 WNW 7 10 - - 0.0 - - - - - - -
20/01:00am 11.4 WNW 6 9 - - 0.0 - - - - - - -
20/12:30am 12.2 WNW 5 8 - - 0.0 - - - - - - -
20/12:00am 11.8 WSW 2 4 - - 0.0 - - - - - - -
 
Date/Time
EDT
Temp

°C
Wind Pressure Rain
since 9am
mm
Weather Cloud Vis
km
Sea
Height
m
Swell
Dir
 
Speed
knots
Gust
knots
hPa Trend Height
m
Period
s
Dir
19/11:30pm 12.5 WNW 7 9 - - 0.0 - - - - - - -
19/11:00pm 12.9 WNW 6 8 - - 0.0 - - - - - - -
19/10:30pm 13.1 WNW 9 11 - - 0.0 - - - - - - -
19/10:00pm 13.2 W 8 10 - - 0.0 - - - - - - -
19/09:30pm 13.3 W 7 9 - - 0.0 - - - - - - -
19/09:00pm 14.1 W 4 6 - - 0.0 - - - - - - -
19/08:30pm 14.9 SSW 12 18 - - 0.0 - - - - - - -
19/08:00pm 15.4 SSW 13 19 - - 0.0 - - - - - - -
19/07:30pm 15.1 SSW 13 22 - - 0.0 - - - - - - -
19/07:00pm 16.2 SSW 14 21 - - 0.0 - - - - - - -
19/06:30pm 16.0 SSW 13 22 - - 0.0 - - - - - - -
19/06:00pm 15.7 SSW 13 21 - - 0.0 - - - - - - -
19/05:30pm 16.8 SSW 15 23 - - 0.0 - - - - - - -
19/05:00pm 16.9 SSW 15 23 - - 0.0 - - - - - - -
19/04:30pm 18.1 SSW 14 24 - - 0.0 - - - - - - -
19/04:00pm 17.1 SSW 13 22 - - 0.0 - - - - - - -
19/03:30pm 18.3 SSW 14 21 - - 0.0 - - - - - - -
19/03:00pm 17.4 SSW 14 23 - - 0.0 - - - - - - -
19/02:30pm 16.5 SSW 12 19 - - 0.0 - - - - - - -
19/02:00pm 18.7 SSW 10 17 - - 0.0 - - - - - - -
19/01:30pm 16.4 SSW 10 17 - - 0.0 - - - - - - -
19/01:00pm 17.1 SSW 8 13 - - 0.0 - - - - - - -
19/12:30pm 15.7 SSW 8 13 - - 0.0 - - - - - - -
19/12:00pm 15.2 SSW 9 15 - - 0.0 - - - - - - -
19/11:30am 17.6 SSW 10 18 - - 0.0 - - - - - - -
19/11:00am 15.6 SW 9 13 - - 0.0 - - - - - - -
19/10:30am 15.3 SW 10 15 - - 0.0 - - - - - - -
19/10:00am 15.6 SW 9 13 - - 0.0 - - - - - - -
19/09:30am 14.6 SSW 11 17 - - 0.0 - - - - - - -
19/09:00am 14.1 WSW 8 14 - - 2.0 - - - - - - -
19/08:30am 13.0 WSW 7 11 - - 2.0 - - - - - - -
19/08:00am 12.5 WSW 6 10 - - 2.0 - - - - - - -
19/07:30am 11.6 WNW 5 8 - - 2.0 - - - - - - -
19/07:00am 10.5 NW 6 8 - - 2.0 - - - - - - -
19/06:30am 11.1 W 7 9 - - 2.0 - - - - - - -
19/06:00am 10.7 W 8 10 - - 2.0 - - - - - - -
19/05:30am 10.7 W 8 16 - - 2.0 - - - - - - -
19/05:00am 10.5 W 7 10 - - 2.0 - - - - - - -
19/04:30am 10.7 W 5 7 - - 2.0 - - - - - - -
19/04:00am 10.8 WSW 9 12 - - 2.0 - - - - - - -
19/03:30am 11.0 WNW 8 11 - - 2.0 - - - - - - -
19/03:00am 10.9 W 9 11 - - 2.0 - - - - - - -
19/02:30am 10.9 W 7 10 - - 2.0 - - - - - - -
19/02:00am 11.1 W 8 10 - - 2.0 - - - - - - -
19/01:30am 10.9 SW 6 9 - - 2.0 - - - - - - -
19/01:00am 11.2 W 8 11 - - 2.0 - - - - - - -
19/12:30am 10.6 WNW 4 8 - - 2.0 - - - - - - -
19/12:00am 10.8 WNW 7 8 - - 2.0 - - - - - - -
 
Date/Time
EDT
Temp

°C
Wind Pressure Rain
since 9am
mm
Weather Cloud Vis
km
Sea
Height
m
Swell
Dir
 
Speed
knots
Gust
knots
hPa Trend Height
m
Period
s
Dir
18/11:30pm 11.8 W 7 9 - - 2.0 - - - - - - -
18/11:00pm 11.7 W 4 7 - - 2.0 - - - - - - -
18/10:30pm 11.8 WNW 6 7 - - 2.0 - - - - - - -
18/10:00pm 12.5 W 9 13 - - 2.0 - - - - - - -
18/09:30pm 12.6 W 7 10 - - 2.0 - - - - - - -
18/09:00pm 13.0 WSW 7 10 - - 2.0 - - - - - - -
18/08:30pm 14.1 WSW 8 11 - - 2.0 - - - - - - -
18/08:00pm 15.2 SW 14 19 - - 2.0 - - - - - - -
18/07:30pm 15.4 WSW 10 16 - - 2.0 - - - - - - -
18/07:00pm 16.8 WSW 8 12 - - 2.0 - - - - - - -
18/06:30pm 16.2 WSW 9 15 - - 2.0 - - - - - - -
18/06:00pm 15.5 W 10 15 - - 2.0 Recent precip. - - - - - -
18/05:30pm 16.3 W 8 11 - - 2.0 - - - - - - -
18/05:00pm 13.9 WSW 13 25 - - 1.6 - - - - - - -
18/04:55pm 14.9 W 11 25 - - 1.6 - - - - - - -
18/04:30pm 15.6 NW 4 10 - - 1.6 - - - - - - -
18/04:00pm 14.4 WSW 9 14 - - 1.6 - - - - - - -
18/03:30pm 14.2 W 6 9 - - 1.6 - - - - - - -
18/03:00pm 13.0 W 7 13 - - 1.6 Rain - - - - - -
18/02:30pm 12.6 W 16 24 - - 1.0 - - - - - - -
18/02:07pm 16.5 WNW 15 32 - - 0.0 - - - - - - -
18/02:00pm 18.2 WNW 13 22 - - 0.0 - - - - - - -
18/01:30pm 20.1 WNW 12 26 - - 0.0 - - - - - - -
18/01:00pm 18.3 WNW 16 31 - - 0.0 - - - - - - -
18/12:59pm 18.4 WNW 15 31 - - 0.0 - - - - - - -
18/12:30pm 18.7 WNW 14 26 - - 0.0 - - - - - - -
18/12:10pm 18.6 W 16 27 - - 0.0 - - - - - - -
18/12:00pm 18.8 WNW 16 25 - - 0.0 - - - - - - -
18/11:30am 18.1 WNW 15 26 - - 0.0 - - - - - - -
18/11:00am 17.5 WNW 17 28 - - 0.0 - - - - - - -
18/10:32am 17.6 WNW 15 26 - - 0.0 - - - - - - -
18/10:30am 18.1 NW 15 25 - - 0.0 - - - - - - -
18/10:17am 17.4 WNW 14 26 - - 0.0 - - - - - - -
18/10:00am 17.0 W 11 18 - - 0.0 - - - - - - -
18/09:30am 16.3 WNW 10 17 - - 0.0 - - - - - - -
18/09:00am 15.3 NW 10 15 - - 0.0 - - - - - - -
18/08:30am 14.3 NW 10 14 - - 0.0 - - - - - - -
18/08:00am 14.0 NW 6 9 - - 0.0 - - - - - - -
18/07:30am 12.6 NNW 3 5 - - 0.0 - - - - - - -

Other Formats:

Comma delimited format used in spreadsheet applications
http://www.bom.gov.au/fwo/IDV60701/IDV60701.94846.axf

JavaScript Object Notation format (JSON) in row-major order
http://www.bom.gov.au/fwo/IDV60701/IDV60701.94846.json